createdAt,value
2022-11-04T00:00:29.913Z,98973.47
2022-11-04T00:01:32.889Z,98969.63
2022-11-04T00:02:34.583Z,98975.53
2022-11-04T00:03:36.413Z,98988.91
2022-11-04T00:04:37.965Z,98964.50
2022-11-04T00:05:39.496Z,98973.75
2022-11-04T00:06:41.749Z,98968.78
2022-11-04T00:08:02.171Z,98966.91
2022-11-04T00:09:11.524Z,98992.34
2022-11-04T00:10:13.427Z,98968.56
2022-11-04T00:11:33.360Z,98982.50
2022-11-04T00:12:34.938Z,98980.69
2022-11-04T00:13:37.891Z,98973.75
2022-11-04T00:14:40.232Z,98979.03
2022-11-04T00:16:01.160Z,98991.78
2022-11-04T00:17:19.818Z,98996.59
2022-11-04T00:18:21.745Z,98975.47
2022-11-04T00:19:24.537Z,98985.06
2022-11-04T00:20:44.531Z,99001.94
2022-11-04T00:22:06.445Z,99025.50
2022-11-04T00:23:27.086Z,99030.53
2022-11-04T00:24:47.504Z,99022.69
2022-11-04T00:26:08.085Z,99038.97
2022-11-04T00:27:30.986Z,99024.63
2022-11-04T00:28:45.296Z,99012.56
2022-11-04T00:29:47.155Z,99022.69
2022-11-04T00:30:49.201Z,99027.75
2022-11-04T00:32:09.347Z,99012.91
2022-11-04T00:33:40.391Z,99032.81
2022-11-04T00:34:43.465Z,99014.44
2022-11-04T00:35:52.034Z,99027.09
2022-11-04T00:36:53.578Z,99017.28
2022-11-04T00:37:55.576Z,99022.19
2022-11-04T00:38:58.271Z,99021.66
2022-11-04T00:40:00.113Z,99010.38
2022-11-04T00:41:02.056Z,99013.53
2022-11-04T00:42:04.554Z,99011.97
2022-11-04T00:43:06.370Z,99036.84
2022-11-04T00:44:09.070Z,99026.38
2022-11-04T00:45:11.819Z,99016.94
2022-11-04T00:46:13.359Z,98998.91
2022-11-04T00:47:15.353Z,99034.00
2022-11-04T00:48:16.996Z,99037.56
2022-11-04T00:49:18.764Z,99018.13
2022-11-04T00:50:20.382Z,99025.19
2022-11-04T00:51:22.776Z,99019.31
2022-11-04T00:52:26.723Z,99016.31
2022-11-04T00:53:28.379Z,99014.34
2022-11-04T00:54:30.333Z,99034.75
2022-11-04T00:55:32.369Z,99028.91
2022-11-04T00:56:37.318Z,99016.44
2022-11-04T00:57:39.090Z,99019.91
2022-11-04T00:58:40.946Z,99004.13
2022-11-04T00:59:42.824Z,99022.03
2022-11-04T01:00:44.591Z,99019.56
2022-11-04T01:01:47.040Z,99032.13
2022-11-04T01:02:48.828Z,99036.53
2022-11-04T01:03:53.267Z,99040.56
2022-11-04T01:04:55.015Z,99029.41
2022-11-04T01:05:58.685Z,99038.09
2022-11-04T01:07:01.182Z,99046.72
2022-11-04T01:08:04.305Z,99047.63
2022-11-04T01:09:10.299Z,99043.06
2022-11-04T01:10:13.536Z,99002.31
2022-11-04T01:11:16.325Z,99048.31
2022-11-04T01:12:18.379Z,99029.50
2022-11-04T01:13:20.287Z,99035.53
2022-11-04T01:14:22.308Z,99031.91
2022-11-04T01:15:25.571Z,99040.41
2022-11-04T01:17:29.842Z,99037.94
2022-11-04T01:18:31.964Z,99004.66
2022-11-04T01:19:33.570Z,99017.59
2022-11-04T01:20:35.473Z,99012.78
2022-11-04T01:21:37.414Z,99032.44
2022-11-04T01:22:38.969Z,99030.03
2022-11-04T01:23:42.180Z,99037.13
2022-11-04T01:24:45.796Z,99034.59
2022-11-04T01:25:49.033Z,99041.06
2022-11-04T01:26:52.062Z,99010.09
2022-11-04T01:27:53.832Z,99035.81
2022-11-04T01:28:58.863Z,99021.97
2022-11-04T01:30:00.522Z,99038.97
2022-11-04T01:31:31.459Z,99043.28
2022-11-04T01:32:33.596Z,99029.50
2022-11-04T01:33:37.134Z,99026.41
2022-11-04T01:34:43.306Z,99042.53
2022-11-04T01:35:49.271Z,99028.00
2022-11-04T01:36:51.507Z,99042.06
2022-11-04T01:37:53.099Z,99043.34
2022-11-04T01:38:57.135Z,99019.91
2022-11-04T01:39:58.870Z,99043.94
2022-11-04T01:41:01.540Z,99026.06
2022-11-04T01:43:15.480Z,99035.19
2022-11-04T01:44:42.407Z,99028.63
2022-11-04T01:45:52.118Z,99019.84
2022-11-04T01:46:54.417Z,99015.88
2022-11-04T01:48:05.611Z,99034.34
2022-11-04T01:49:31.266Z,99026.34
2022-11-04T01:50:35.195Z,99033.13
2022-11-04T01:51:41.920Z,99026.25
2022-11-04T01:52:46.901Z,99023.78
2022-11-04T01:53:52.029Z,99022.38
2022-11-04T01:54:57.759Z,99025.06
2022-11-04T01:56:04.046Z,99029.03
2022-11-04T01:57:15.109Z,99027.03
2022-11-04T01:58:21.180Z,99030.31
2022-11-04T01:59:28.661Z,99027.31
2022-11-04T02:00:31.994Z,99038.16
2022-11-04T02:01:35.486Z,99030.22
2022-11-04T02:02:49.891Z,99028.47
2022-11-04T02:04:18.395Z,99028.66
2022-11-04T02:05:22.286Z,99029.72
2022-11-04T02:06:24.009Z,99013.78
2022-11-04T02:07:25.949Z,99003.16
2022-11-04T02:08:29.014Z,99031.25
2022-11-04T02:09:32.508Z,99021.78
2022-11-04T02:10:35.185Z,99010.84
2022-11-04T02:11:55.294Z,99020.44
2022-11-04T02:13:00.410Z,99022.06
2022-11-04T02:14:02.468Z,99017.25
2022-11-04T02:15:05.160Z,99011.75
2022-11-04T02:16:19.819Z,99011.66
2022-11-04T02:17:54.610Z,99015.13
2022-11-04T02:19:02.236Z,99014.38
2022-11-04T02:20:16.803Z,99013.03
2022-11-04T02:21:50.525Z,98993.88
2022-11-04T02:23:11.375Z,99017.66
2022-11-04T02:24:50.669Z,99023.09
2022-11-04T02:26:17.139Z,99019.72
2022-11-04T02:27:18.598Z,99018.16
2022-11-04T02:28:29.125Z,99007.91
2022-11-04T02:29:51.725Z,99005.28
2022-11-04T02:30:54.859Z,98990.03
2022-11-04T02:32:21.802Z,98993.47
2022-11-04T02:33:37.296Z,99001.66
2022-11-04T02:34:56.103Z,99004.44
2022-11-04T02:36:10.038Z,99008.88
2022-11-04T02:37:46.375Z,99002.91
2022-11-04T02:39:02.003Z,98980.91
2022-11-04T02:40:27.689Z,98991.78
2022-11-04T02:41:50.895Z,98974.25
2022-11-04T02:43:00.346Z,98989.59
2022-11-04T02:44:18.198Z,98995.25
2022-11-04T02:45:31.520Z,99009.06
2022-11-04T02:46:38.391Z,99004.69
2022-11-04T02:47:46.199Z,99011.09
2022-11-04T02:48:54.543Z,98993.16
2022-11-04T02:50:06.211Z,99007.56
2022-11-04T02:51:08.031Z,99004.09
2022-11-04T02:52:20.124Z,99004.59
2022-11-04T02:53:34.242Z,98998.47
2022-11-04T02:54:47.596Z,99008.16
2022-11-04T02:55:57.667Z,99016.00
2022-11-04T02:57:04.681Z,99019.44
2022-11-04T02:58:14.217Z,99022.41
2022-11-04T02:59:35.403Z,99022.75
2022-11-04T03:00:39.969Z,99018.69
2022-11-04T03:01:45.952Z,99026.94
2022-11-04T03:02:59.485Z,99015.81
2022-11-04T03:04:08.553Z,99014.19
2022-11-04T03:05:15.924Z,99010.84
2022-11-04T03:06:20.676Z,99006.38
2022-11-04T03:07:26.752Z,99003.84
2022-11-04T03:08:36.116Z,98993.19
2022-11-04T03:09:41.630Z,98986.38
2022-11-04T03:10:50.859Z,98990.69
2022-11-04T03:12:02.522Z,98996.56
2022-11-04T03:13:24.942Z,99002.25
2022-11-04T03:14:33.520Z,98997.78
2022-11-04T03:15:40.423Z,98992.53
2022-11-04T03:16:49.123Z,99010.00
2022-11-04T03:17:58.702Z,98997.44
2022-11-04T03:19:09.452Z,99002.34
2022-11-04T03:20:21.105Z,99007.88
2022-11-04T03:21:25.977Z,98999.63
2022-11-04T03:22:36.091Z,98988.84
2022-11-04T03:23:38.182Z,98988.53
2022-11-04T03:24:41.741Z,98972.22
2022-11-04T03:25:51.441Z,98992.44
2022-11-04T03:27:02.853Z,99008.13
2022-11-04T03:28:11.000Z,99017.56
2022-11-04T03:29:22.095Z,99006.09
2022-11-04T03:30:24.696Z,99020.69
2022-11-04T03:31:59.531Z,99000.38
2022-11-04T03:33:08.292Z,99004.34
2022-11-04T03:34:10.463Z,99013.94
2022-11-04T03:35:14.981Z,99000.19
2022-11-04T03:36:18.080Z,99011.69
2022-11-04T03:37:20.330Z,99014.88
2022-11-04T03:38:23.098Z,99002.06
2022-11-04T03:39:25.572Z,99009.13
2022-11-04T03:40:28.833Z,98974.28
2022-11-04T03:41:34.380Z,99005.91
2022-11-04T03:42:44.829Z,98990.78
2022-11-04T03:43:46.487Z,99007.47
2022-11-04T03:44:57.135Z,99017.47
2022-11-04T03:45:59.173Z,99012.50
2022-11-04T03:47:01.019Z,99013.59
2022-11-04T03:48:05.211Z,99017.78
2022-11-04T03:49:08.197Z,99036.59
2022-11-04T03:50:18.704Z,99006.63
2022-11-04T03:51:20.283Z,99015.31
2022-11-04T03:52:22.307Z,99014.97
2022-11-04T03:54:32.887Z,98993.91
2022-11-04T03:56:14.769Z,99007.03
2022-11-04T03:57:36.483Z,99005.84
2022-11-04T03:58:53.615Z,99007.13
2022-11-04T04:00:15.876Z,99011.84
2022-11-04T04:01:35.984Z,99005.63
2022-11-04T04:03:09.523Z,99003.94
2022-11-04T04:04:11.172Z,99003.84
2022-11-04T04:05:32.480Z,99003.50
2022-11-04T04:06:38.319Z,98996.66
2022-11-04T04:07:55.145Z,98982.44
2022-11-04T04:09:03.623Z,98984.13
2022-11-04T04:10:34.463Z,98989.69
2022-11-04T04:11:48.161Z,98993.38
2022-11-04T04:12:51.605Z,98989.25
2022-11-04T04:14:08.484Z,98978.97
2022-11-04T04:15:25.850Z,98988.56
2022-11-04T04:16:47.741Z,98982.34
2022-11-04T04:17:54.910Z,98974.66
2022-11-04T04:19:04.130Z,98996.00
2022-11-04T04:20:20.215Z,98980.81
2022-11-04T04:21:29.163Z,98990.69
2022-11-04T04:22:53.387Z,98993.19
2022-11-04T04:24:16.506Z,98979.38
2022-11-04T04:25:41.507Z,98970.28
2022-11-04T04:27:04.355Z,98975.25
2022-11-04T04:28:08.205Z,98953.34
2022-11-04T04:29:11.445Z,98990.16
2022-11-04T04:30:15.026Z,99000.00
2022-11-04T04:31:37.555Z,99010.69
2022-11-04T04:32:44.353Z,98996.97
2022-11-04T04:33:46.274Z,99007.47
2022-11-04T04:34:48.255Z,98988.66
2022-11-04T04:35:54.131Z,99001.66
2022-11-04T04:37:08.908Z,98986.44
2022-11-04T04:38:43.851Z,98991.66
2022-11-04T04:40:06.661Z,98996.97
2022-11-04T04:41:47.505Z,98988.63
2022-11-04T04:43:12.072Z,98978.81
2022-11-04T04:44:40.978Z,98978.28
2022-11-04T04:45:48.244Z,98983.63
2022-11-04T04:46:53.871Z,98978.28
2022-11-04T04:47:56.777Z,98983.09
2022-11-04T04:49:09.074Z,98989.16
2022-11-04T04:50:17.403Z,98987.78
2022-11-04T04:51:19.860Z,98993.31
2022-11-04T04:52:23.908Z,98981.41
2022-11-04T04:53:25.764Z,98965.69
2022-11-04T04:54:28.093Z,98968.91
2022-11-04T04:55:31.921Z,98941.91
2022-11-04T04:56:34.981Z,98947.56
2022-11-04T04:57:36.906Z,98930.22
2022-11-04T04:58:41.237Z,98963.00
2022-11-04T04:59:43.096Z,98988.63
2022-11-04T05:00:45.029Z,98977.78
2022-11-04T05:01:48.013Z,98931.53
2022-11-04T05:02:50.935Z,98991.75
2022-11-04T05:03:54.142Z,98964.75
2022-11-04T05:04:56.540Z,98944.28
2022-11-04T05:06:00.928Z,98981.16
2022-11-04T05:07:03.165Z,98977.91
2022-11-04T05:08:07.209Z,98972.16
2022-11-04T05:09:09.791Z,98977.16
2022-11-04T05:10:15.091Z,98975.06
2022-11-04T05:11:24.359Z,98994.94
2022-11-04T05:12:48.409Z,98980.13
2022-11-04T05:13:50.370Z,98954.66
2022-11-04T05:14:52.648Z,98950.06
2022-11-04T05:15:54.358Z,98966.06
2022-11-04T05:16:56.212Z,98977.91
2022-11-04T05:18:00.987Z,98970.53
2022-11-04T05:19:03.133Z,98957.41
2022-11-04T05:20:05.022Z,98915.31
2022-11-04T05:21:14.144Z,98950.31
2022-11-04T05:22:16.040Z,98952.00
2022-11-04T05:23:18.048Z,98905.75
2022-11-04T05:24:20.427Z,98945.09
2022-11-04T05:25:22.330Z,98932.28
2022-11-04T05:26:30.007Z,98948.94
2022-11-04T05:27:31.583Z,98925.59
2022-11-04T05:28:33.337Z,98934.13
2022-11-04T05:29:38.077Z,98927.31
2022-11-04T05:30:40.931Z,98947.56
2022-11-04T05:31:42.817Z,98924.41
2022-11-04T05:32:44.934Z,98951.72
2022-11-04T05:33:47.866Z,98937.75
2022-11-04T05:34:49.441Z,98942.94
2022-11-04T05:35:51.126Z,98896.72
2022-11-04T05:36:52.938Z,98944.78
2022-11-04T05:37:56.856Z,98944.16
2022-11-04T05:38:58.719Z,98942.13
2022-11-04T05:40:00.401Z,98905.84
2022-11-04T05:41:04.710Z,98944.03
2022-11-04T05:42:06.281Z,98941.50
2022-11-04T05:43:08.314Z,98946.78
2022-11-04T05:44:11.970Z,98946.00
2022-11-04T05:45:13.706Z,98954.91
2022-11-04T05:46:17.846Z,98913.81
2022-11-04T05:47:21.074Z,98917.78
2022-11-04T05:48:22.679Z,98938.84
2022-11-04T05:49:25.192Z,98968.38
2022-11-04T05:50:27.265Z,98913.25
2022-11-04T05:51:29.820Z,98950.28
2022-11-04T05:52:31.493Z,98948.66
2022-11-04T05:53:33.496Z,98945.66
2022-11-04T05:54:38.648Z,98955.00
2022-11-04T05:55:40.258Z,98931.34
2022-11-04T05:56:42.004Z,98959.50
2022-11-04T05:57:44.363Z,98948.53
2022-11-04T05:58:46.276Z,98939.28
2022-11-04T05:59:47.841Z,98959.72
2022-11-04T06:00:49.775Z,98930.06
2022-11-04T06:01:52.218Z,98964.16
2022-11-04T06:02:57.391Z,98955.84
2022-11-04T06:04:00.409Z,98961.72
2022-11-04T06:05:02.789Z,98975.63
2022-11-04T06:06:05.141Z,98949.22
2022-11-04T06:07:07.769Z,98979.97
2022-11-04T06:08:09.690Z,98923.06
2022-11-04T06:09:13.101Z,98971.22
2022-11-04T06:10:16.024Z,98951.50
2022-11-04T06:11:20.084Z,98967.03
2022-11-04T06:12:21.886Z,98999.16
2022-11-04T06:13:26.522Z,98960.91
2022-11-04T06:14:28.054Z,98984.75
2022-11-04T06:15:32.365Z,98950.06
2022-11-04T06:16:34.018Z,98930.56
2022-11-04T06:17:35.903Z,98933.06
2022-11-04T06:18:37.769Z,98951.78
2022-11-04T06:19:39.510Z,98915.28
2022-11-04T06:20:41.123Z,98928.41
2022-11-04T06:21:42.694Z,98963.59
2022-11-04T06:22:45.554Z,98942.47
2022-11-04T06:23:47.048Z,98912.91
2022-11-04T06:24:48.871Z,98918.25
2022-11-04T06:25:53.414Z,98941.75
2022-11-04T06:26:55.112Z,98981.84
2022-11-04T06:27:57.876Z,98881.69
2022-11-04T06:28:59.895Z,98961.97
2022-11-04T06:30:05.406Z,98962.06
2022-11-04T06:31:10.682Z,98963.81
2022-11-04T06:32:16.995Z,98946.03
2022-11-04T06:33:18.712Z,98947.69
2022-11-04T06:34:20.702Z,98946.88
2022-11-04T06:35:22.771Z,98929.59
2022-11-04T06:36:24.769Z,98899.25
2022-11-04T06:37:27.676Z,98900.09
2022-11-04T06:38:31.752Z,98934.44
2022-11-04T06:39:36.024Z,98921.50
2022-11-04T06:40:37.721Z,98933.47
2022-11-04T06:41:42.824Z,98960.63
2022-11-04T06:42:45.440Z,98962.25
2022-11-04T06:43:47.024Z,98967.47
2022-11-04T06:44:49.066Z,98904.81
2022-11-04T06:45:58.902Z,98963.03
2022-11-04T06:47:00.668Z,98959.47
2022-11-04T06:48:04.422Z,98953.59
2022-11-04T06:49:10.053Z,98961.72
2022-11-04T06:50:12.879Z,98929.72
2022-11-04T06:51:14.455Z,98956.38
2022-11-04T06:52:16.083Z,98962.00
2022-11-04T06:53:17.799Z,98910.28
2022-11-04T06:54:20.256Z,98944.78
2022-11-04T06:55:23.049Z,98939.41
2022-11-04T06:56:25.290Z,98947.09
2022-11-04T06:57:26.849Z,98969.59
2022-11-04T06:58:28.564Z,98974.94
2022-11-04T06:59:31.919Z,98910.06
2022-11-04T07:00:33.981Z,98937.06
2022-11-04T07:01:37.345Z,98974.34
2022-11-04T07:02:39.522Z,98969.72
2022-11-04T07:03:42.319Z,98992.06
2022-11-04T07:04:44.475Z,98981.41
2022-11-04T07:05:46.105Z,98987.41
2022-11-04T07:06:48.428Z,98947.44
2022-11-04T07:07:50.588Z,98954.19
2022-11-04T07:08:53.353Z,98985.09
2022-11-04T07:09:55.144Z,98971.28
2022-11-04T07:10:57.268Z,98990.41
2022-11-04T07:11:59.102Z,98964.16
2022-11-04T07:13:00.843Z,98974.91
2022-11-04T07:14:02.817Z,98953.72
2022-11-04T07:15:05.395Z,99001.59
2022-11-04T07:16:10.619Z,98989.16
2022-11-04T07:17:12.239Z,98966.28
2022-11-04T07:18:14.141Z,98984.69
2022-11-04T07:19:16.170Z,99015.09
2022-11-04T07:20:17.923Z,98911.28
2022-11-04T07:21:19.638Z,98937.63
2022-11-04T07:22:22.915Z,98938.38
2022-11-04T07:23:24.826Z,98930.41
2022-11-04T07:24:26.678Z,98980.84
2022-11-04T07:25:29.358Z,98975.72
2022-11-04T07:26:31.101Z,98962.91
2022-11-04T07:27:33.520Z,98939.13
2022-11-04T07:28:35.600Z,98971.84
2022-11-04T07:29:37.343Z,98951.69
2022-11-04T07:30:40.501Z,98979.47
2022-11-04T07:31:43.920Z,98964.88
2022-11-04T07:32:45.586Z,99002.59
2022-11-04T07:33:50.345Z,98937.66
2022-11-04T07:34:52.610Z,98980.13
2022-11-04T07:35:57.112Z,98945.94
2022-11-04T07:37:00.096Z,98992.41
2022-11-04T07:38:04.084Z,98998.72
2022-11-04T07:39:07.343Z,98990.69
2022-11-04T07:40:10.895Z,98982.09
2022-11-04T07:41:13.870Z,98979.94
2022-11-04T07:42:15.696Z,98949.38
2022-11-04T07:43:17.623Z,98975.13
2022-11-04T07:44:20.740Z,98979.97
2022-11-04T07:45:22.737Z,98975.59
2022-11-04T07:46:29.655Z,98953.56
2022-11-04T07:47:32.200Z,98959.84
2022-11-04T07:48:34.445Z,98986.97
2022-11-04T07:49:36.145Z,98984.97
2022-11-04T07:50:41.132Z,98971.63
2022-11-04T07:51:43.443Z,98991.44
2022-11-04T07:52:45.832Z,98973.75
2022-11-04T07:53:48.191Z,98962.13
2022-11-04T07:54:50.558Z,98935.13
2022-11-04T07:55:52.485Z,98916.66
2022-11-04T07:56:54.095Z,98896.50
2022-11-04T07:57:56.234Z,98943.69
2022-11-04T07:58:59.121Z,98929.47
2022-11-04T08:00:00.802Z,98919.72
2022-11-04T08:01:05.808Z,98940.06
2022-11-04T08:02:09.160Z,98946.19
2022-11-04T08:03:11.755Z,98948.13
2022-11-04T08:04:13.890Z,98909.63
2022-11-04T08:05:16.278Z,98947.69
2022-11-04T08:06:20.461Z,98947.59
2022-11-04T08:07:23.525Z,98957.88
2022-11-04T08:08:28.746Z,98956.38
2022-11-04T08:09:31.565Z,98928.41
2022-11-04T08:10:33.605Z,98948.34
2022-11-04T08:11:35.576Z,98970.47
2022-11-04T08:12:38.829Z,98939.50
2022-11-04T08:13:42.255Z,98946.47
2022-11-04T08:14:44.200Z,98913.88
2022-11-04T08:15:46.099Z,98924.97
2022-11-04T08:16:51.328Z,98923.53
2022-11-04T08:17:54.940Z,98942.50
2022-11-04T08:19:03.854Z,98919.88
2022-11-04T08:20:10.453Z,98934.91
2022-11-04T08:21:14.566Z,98954.34
2022-11-04T08:22:16.552Z,98922.38
2022-11-04T08:23:19.047Z,98945.91
2022-11-04T08:24:20.987Z,98927.66
2022-11-04T08:25:23.298Z,98901.44
2022-11-04T08:26:25.682Z,98913.72
2022-11-04T08:27:27.721Z,98880.31
2022-11-04T08:28:30.495Z,98915.50
2022-11-04T08:29:32.707Z,98942.28
2022-11-04T08:30:35.569Z,98928.75
2022-11-04T08:31:38.151Z,98897.94
2022-11-04T08:32:39.908Z,98947.19
2022-11-04T08:33:43.354Z,98926.28
2022-11-04T08:34:45.422Z,98885.72
2022-11-04T08:35:47.874Z,98927.13
2022-11-04T08:36:50.012Z,98931.91
2022-11-04T08:37:51.719Z,98922.75
2022-11-04T08:38:54.579Z,98921.78
2022-11-04T08:39:56.292Z,98917.97
2022-11-04T08:41:00.260Z,98925.50
2022-11-04T08:42:02.013Z,98886.03
2022-11-04T08:43:06.923Z,98920.63
2022-11-04T08:44:10.398Z,98942.31
2022-11-04T08:45:14.995Z,98886.03
2022-11-04T08:46:17.458Z,98916.13
2022-11-04T08:47:19.851Z,98924.34
2022-11-04T08:48:23.479Z,98879.84
2022-11-04T08:49:26.927Z,98919.09
2022-11-04T08:50:36.661Z,98887.56
2022-11-04T08:51:44.625Z,98906.56
2022-11-04T08:52:46.676Z,98927.59
2022-11-04T08:53:48.277Z,98909.94
2022-11-04T08:54:56.213Z,98896.50
2022-11-04T08:56:00.784Z,98892.53
2022-11-04T08:57:02.555Z,98896.25
2022-11-04T08:58:04.527Z,98934.41
2022-11-04T08:59:06.570Z,98876.69
2022-11-04T09:00:08.803Z,98913.19
2022-11-04T09:01:11.437Z,98887.16
2022-11-04T09:02:16.456Z,98895.47
2022-11-04T09:03:18.500Z,98918.06
2022-11-04T09:04:21.261Z,98927.16
2022-11-04T09:05:24.203Z,98874.09
2022-11-04T09:06:31.046Z,98929.84
2022-11-04T09:07:32.849Z,98958.28
2022-11-04T09:08:34.394Z,98939.75
2022-11-04T09:09:36.715Z,98913.81
2022-11-04T09:10:42.978Z,98936.50
2022-11-04T09:11:46.308Z,98933.81
2022-11-04T09:12:48.373Z,98900.03
2022-11-04T09:13:50.334Z,98901.50
2022-11-04T09:14:52.487Z,98931.50
2022-11-04T09:15:54.560Z,98914.28
2022-11-04T09:16:56.599Z,98930.94
2022-11-04T09:17:58.288Z,98936.47
2022-11-04T09:19:00.273Z,98920.22
2022-11-04T09:20:02.358Z,98901.19
2022-11-04T09:21:08.362Z,98925.94
2022-11-04T09:22:10.299Z,98939.94
2022-11-04T09:23:16.335Z,98938.81
2022-11-04T09:24:19.150Z,98947.38
2022-11-04T09:25:23.055Z,98932.28
2022-11-04T09:26:25.918Z,98955.66
2022-11-04T09:27:28.783Z,98915.69
2022-11-04T09:28:30.801Z,98948.00
2022-11-04T09:29:33.883Z,98898.59
2022-11-04T09:30:37.333Z,98931.84
2022-11-04T09:31:39.397Z,98937.56
2022-11-04T09:32:41.024Z,98941.63
2022-11-04T09:33:44.411Z,98951.16
2022-11-04T09:34:46.053Z,98895.88
2022-11-04T09:35:57.855Z,98953.09
2022-11-04T09:36:59.564Z,98962.56
2022-11-04T09:38:02.329Z,98911.56
2022-11-04T09:39:05.237Z,98939.16
2022-11-04T09:40:08.226Z,98894.66
2022-11-04T09:41:22.691Z,98946.56
2022-11-04T09:42:45.840Z,98949.91
2022-11-04T09:44:17.149Z,98889.09
2022-11-04T09:45:24.516Z,98904.84
2022-11-04T09:46:27.599Z,98942.06
2022-11-04T09:47:32.538Z,98946.09
2022-11-04T09:48:40.925Z,98951.69
2022-11-04T09:49:45.865Z,98950.50
2022-11-04T09:50:53.150Z,98951.53
2022-11-04T09:51:58.195Z,98910.25
2022-11-04T09:53:15.045Z,98956.66
2022-11-04T09:54:25.591Z,98979.69
2022-11-04T09:55:41.752Z,98960.13
2022-11-04T09:56:48.668Z,98926.19
2022-11-04T09:58:00.697Z,98956.97
2022-11-04T09:59:09.670Z,98957.22
2022-11-04T10:00:18.789Z,98954.88
2022-11-04T10:02:00.412Z,98967.41
2022-11-04T10:03:32.271Z,98975.53
2022-11-04T10:04:41.032Z,98975.31
2022-11-04T10:06:04.895Z,98973.53
2022-11-04T10:07:13.364Z,98972.44
2022-11-04T10:08:49.139Z,98974.81
2022-11-04T10:10:14.287Z,98979.00
2022-11-04T10:11:37.381Z,98980.81
2022-11-04T10:12:47.435Z,98980.59
2022-11-04T10:14:09.434Z,98970.75
2022-11-04T10:15:38.541Z,98958.75
2022-11-04T10:16:43.901Z,98973.75
2022-11-04T10:17:57.399Z,98969.56
2022-11-04T10:19:01.929Z,98973.00
2022-11-04T10:20:15.996Z,98921.34
2022-11-04T10:21:46.054Z,98967.63
2022-11-04T10:23:01.790Z,98965.00
2022-11-04T10:24:20.771Z,98953.94
2022-11-04T10:25:28.058Z,98922.56
2022-11-04T10:27:01.273Z,98960.69
2022-11-04T10:28:03.753Z,98952.88
2022-11-04T10:29:12.625Z,98969.72
2022-11-04T10:30:22.442Z,98952.41
2022-11-04T10:31:26.653Z,98943.00
2022-11-04T10:32:38.324Z,98928.69
2022-11-04T10:33:46.067Z,98956.63
2022-11-04T10:35:00.790Z,98922.50
2022-11-04T10:36:08.856Z,98936.00
2022-11-04T10:37:13.917Z,98955.19
2022-11-04T10:38:42.291Z,98971.88
2022-11-04T10:39:47.379Z,98947.56
2022-11-04T10:40:52.819Z,98954.59
2022-11-04T10:41:55.512Z,98961.91
2022-11-04T10:43:03.041Z,98917.59
2022-11-04T10:44:09.083Z,98902.25
2022-11-04T10:45:14.504Z,98946.41
2022-11-04T10:46:22.367Z,98942.25
2022-11-04T10:47:26.771Z,98952.19
2022-11-04T10:48:39.612Z,98925.44
2022-11-04T10:51:25.883Z,98912.63
2022-11-04T10:52:27.881Z,98942.25
2022-11-04T10:53:33.910Z,98941.28
2022-11-04T10:54:43.506Z,98948.44
2022-11-04T10:55:57.582Z,98942.69
2022-11-04T10:56:59.563Z,98913.22
2022-11-04T10:58:02.588Z,98933.13
2022-11-04T10:59:25.641Z,98937.09
2022-11-04T11:00:53.868Z,98940.19
2022-11-04T11:02:02.458Z,98937.44
2022-11-04T11:03:24.923Z,98943.03
2022-11-04T11:04:29.809Z,98912.75
2022-11-04T11:05:31.638Z,98941.38
2022-11-04T11:06:37.076Z,98943.50
2022-11-04T11:07:39.106Z,98944.03
2022-11-04T11:08:42.263Z,98893.16
2022-11-04T11:09:57.159Z,98937.41
2022-11-04T11:10:59.934Z,98947.75
2022-11-04T11:12:36.332Z,98938.31
2022-11-04T11:13:36.768Z,98939.66
2022-11-04T11:14:41.283Z,98925.03
2022-11-04T11:15:44.937Z,98937.16
2022-11-04T11:16:48.559Z,98915.56
2022-11-04T11:17:52.962Z,98945.19
2022-11-04T11:19:15.810Z,98938.91
2022-11-04T11:20:27.005Z,98883.34
2022-11-04T11:21:45.364Z,98941.53
2022-11-04T11:22:51.827Z,98936.75
2022-11-04T11:23:57.483Z,98924.19
2022-11-04T11:25:15.211Z,98938.81
2022-11-04T11:26:29.356Z,98931.88
2022-11-04T11:27:31.432Z,98930.75
2022-11-04T11:28:38.585Z,98957.44
2022-11-04T11:29:42.379Z,98904.56
2022-11-04T11:30:44.581Z,98933.94
2022-11-04T11:31:49.456Z,98932.47
2022-11-04T11:32:56.019Z,98900.56
2022-11-04T11:34:01.005Z,98917.56
2022-11-04T11:35:10.705Z,98930.38
2022-11-04T11:36:18.483Z,98920.91
2022-11-04T11:37:25.914Z,98902.75
2022-11-04T11:38:35.035Z,98924.44
2022-11-04T11:39:38.041Z,98924.69
2022-11-04T11:40:57.365Z,98910.69
2022-11-04T11:42:07.424Z,98918.78
2022-11-04T11:43:30.457Z,98896.41
2022-11-04T11:44:33.332Z,98925.78
2022-11-04T11:45:35.355Z,98909.31
2022-11-04T11:46:38.332Z,98928.91
2022-11-04T11:47:42.777Z,98896.69
2022-11-04T11:48:52.847Z,98934.78
2022-11-04T11:50:20.392Z,98908.91
2022-11-04T11:51:36.046Z,98914.16
2022-11-04T11:52:38.697Z,98889.13
2022-11-04T11:53:58.365Z,98909.38
2022-11-04T11:55:18.268Z,98882.81
2022-11-04T11:57:14.681Z,98906.94
2022-11-04T12:01:46.974Z,98916.84
2022-11-04T12:03:17.741Z,98908.03
2022-11-04T12:11:02.036Z,98906.91
2022-11-04T12:12:19.858Z,98858.72
2022-11-04T12:13:44.478Z,98886.56
2022-11-04T12:15:10.276Z,98908.41
2022-11-04T12:16:43.631Z,98900.31
2022-11-04T12:17:59.310Z,98913.25
2022-11-04T12:19:12.691Z,98912.63
2022-11-04T12:20:25.230Z,98920.06
2022-11-04T12:21:35.608Z,98927.34
2022-11-04T12:22:56.999Z,98918.94
2022-11-04T12:24:16.459Z,98916.03
2022-11-04T12:25:36.566Z,98915.03
2022-11-04T12:26:47.241Z,98907.47
2022-11-04T12:28:04.305Z,98867.69
2022-11-04T12:29:21.373Z,98915.03
2022-11-04T12:30:32.354Z,98918.56
2022-11-04T12:31:51.044Z,98907.84
2022-11-04T12:32:56.300Z,98904.72
2022-11-04T12:34:19.877Z,98892.47
2022-11-04T12:35:33.185Z,98911.31
2022-11-04T12:36:44.358Z,98879.84
2022-11-04T12:38:22.027Z,98908.53
2022-11-04T12:39:43.989Z,98914.47
2022-11-04T12:41:27.677Z,98899.16
2022-11-04T12:42:40.513Z,98917.94
2022-11-04T12:43:42.357Z,98912.28
2022-11-04T12:45:08.060Z,98912.56
2022-11-04T12:46:28.160Z,98918.03
2022-11-04T12:47:39.675Z,98910.94
2022-11-04T12:49:07.074Z,98910.09
2022-11-04T12:50:27.716Z,98883.06
2022-11-04T12:51:41.079Z,98913.91
2022-11-04T12:52:50.837Z,98911.38
2022-11-04T12:54:06.652Z,98907.75
2022-11-04T12:55:33.027Z,98908.63
2022-11-04T12:56:39.012Z,98906.91
2022-11-04T12:57:58.324Z,98899.25
2022-11-04T12:59:37.896Z,98919.31
2022-11-04T13:00:42.204Z,98916.88
2022-11-04T13:02:07.712Z,98914.03
2022-11-04T13:03:30.181Z,98926.28
2022-11-04T13:04:41.602Z,98906.28
2022-11-04T13:05:46.874Z,98875.81
2022-11-04T13:07:00.882Z,98924.75
2022-11-04T13:08:20.246Z,98916.66
2022-11-04T13:09:40.967Z,98917.56
2022-11-04T13:10:45.563Z,98916.44
2022-11-04T13:11:54.237Z,98927.34
2022-11-04T13:13:00.675Z,98927.66
2022-11-04T13:14:31.735Z,98930.50
2022-11-04T13:16:43.613Z,98922.00
2022-11-04T13:17:47.883Z,98912.22
2022-11-04T13:18:51.666Z,98923.47
2022-11-04T13:19:58.309Z,98916.31
2022-11-04T13:21:27.495Z,98939.47
2022-11-04T13:22:34.457Z,98933.53
2022-11-04T13:23:57.976Z,98917.97
2022-11-04T13:25:06.665Z,98936.75
2022-11-04T13:26:16.210Z,98943.50
2022-11-04T13:27:22.945Z,98890.03
2022-11-04T13:28:26.079Z,98946.28
2022-11-04T13:29:29.018Z,98947.75
2022-11-04T13:30:45.129Z,98950.06
2022-11-04T13:31:52.422Z,98928.00
2022-11-04T13:33:29.083Z,98948.13
2022-11-04T13:34:55.278Z,98953.97